Time;durP1;ratioP1;P1;durP2;ratioP2;P2;SDS_P1;SDS_P2;PMS_P1;PMS_P2;Temp;Humidity;BMP_temperature;BMP_pressure;BME280_temperature;BME280_humidity;BME280_pressure;Samples;Min_cycle;Max_cycle;Signal;HPM_P1;HPM_P2
2021/06/23 00:00:56;;;;;;;8.05;2.28;;;13.00;99.90;;;;;;5027188;28;20462;-72
2021/06/23 00:03:23;;;;;;;3.55;1.60;;;13.00;99.90;;;;;;5027292;28;20041;-71
2021/06/23 00:05:48;;;;;;;4.95;1.63;;;12.90;99.90;;;;;;5027032;28;20472;-71
2021/06/23 00:08:14;;;;;;;13.75;1.80;;;12.90;99.90;;;;;;5026780;28;20037;-71
2021/06/23 00:10:40;;;;;;;3.03;1.25;;;12.80;99.90;;;;;;5027125;28;20087;-72
2021/06/23 00:13:08;;;;;;;5.32;1.70;;;12.90;99.90;;;;;;5026941;28;20044;-72
2021/06/23 00:15:34;;;;;;;1.88;1.30;;;12.80;99.90;;;;;;5041695;28;20454;-72
2021/06/23 00:18:00;;;;;;;1.20;0.95;;;12.80;99.90;;;;;;5026556;28;20025;-72
2021/06/23 00:20:26;;;;;;;8.65;1.67;;;12.80;99.90;;;;;;5027137;28;20030;-71
2021/06/23 00:22:52;;;;;;;5.40;1.95;;;12.80;99.90;;;;;;5026648;28;20091;-71
2021/06/23 00:25:18;;;;;;;5.25;1.83;;;12.70;99.90;;;;;;5026926;28;20041;-71
2021/06/23 00:27:43;;;;;;;2.97;1.38;;;12.80;99.90;;;;;;5026462;28;20455;-72
2021/06/23 00:30:10;;;;;;;3.78;1.90;;;12.80;99.90;;;;;;5026613;28;20057;-72
2021/06/23 00:32:38;;;;;;;5.70;1.27;;;12.70;99.90;;;;;;5025549;28;20542;-70
2021/06/23 00:35:04;;;;;;;3.35;1.70;;;12.70;99.90;;;;;;5026282;28;20093;-72
2021/06/23 00:37:30;;;;;;;4.75;1.50;;;12.70;99.90;;;;;;5026521;28;20033;-71
2021/06/23 00:39:56;;;;;;;4.30;1.20;;;12.70;99.90;;;;;;5026062;28;20038;-73
2021/06/23 00:42:21;;;;;;;4.38;1.63;;;12.70;99.90;;;;;;5026322;28;20037;-71
2021/06/23 00:44:47;;;;;;;5.40;1.77;;;12.70;99.90;;;;;;5026493;28;20082;-73
2021/06/23 00:47:14;;;;;;;2.08;1.38;;;12.70;99.90;;;;;;5026500;28;20021;-71
2021/06/23 00:49:39;;;;;;;4.28;2.28;;;12.70;99.90;;;;;;5025858;28;20034;-70
2021/06/23 00:52:07;;;;;;;7.60;1.80;;;12.80;99.90;;;;;;5025988;28;20070;-71
2021/06/23 00:54:34;;;;;;;3.15;1.67;;;12.80;99.90;;;;;;5026156;28;20041;-72
2021/06/23 00:57:04;;;;;;;14.43;2.10;;;12.90;99.90;;;;;;5026248;28;20120;-73
2021/06/23 00:59:35;;;;;;;4.07;1.50;;;12.80;99.90;;;;;;5026219;28;20026;-72
2021/06/23 01:02:03;;;;;;;6.05;1.42;;;12.90;99.90;;;;;;5026223;28;20017;-72
2021/06/23 01:04:28;;;;;;;3.53;1.30;;;12.90;99.90;;;;;;5025884;28;20030;-71
2021/06/23 01:06:55;;;;;;;12.70;2.30;;;12.90;99.90;;;;;;5026123;28;20080;-73
2021/06/23 01:09:21;;;;;;;2.83;1.35;;;12.90;99.90;;;;;;5024660;28;20037;-73
2021/06/23 01:12:23;;;;;;;4.57;1.88;;;12.90;99.90;;;;;;5040812;28;20099;-71
2021/06/23 01:14:59;;;;;;;1.73;1.20;;;12.90;99.90;;;;;;5025801;28;20494;-71
2021/06/23 01:17:27;;;;;;;3.72;1.42;;;12.90;99.90;;;;;;5031953;28;20041;-70
2021/06/23 01:20:05;;;;;;;3.10;1.73;;;12.90;99.90;;;;;;5054542;28;20057;-72
2021/06/23 01:22:31;;;;;;;4.40;2.13;;;12.90;99.90;;;;;;5046924;28;20029;-72
2021/06/23 01:24:58;;;;;;;4.30;2.15;;;12.90;99.90;;;;;;5063930;28;20086;-72
2021/06/23 01:27:24;;;;;;;2.05;1.33;;;12.90;99.90;;;;;;5064034;28;20093;-72
2021/06/23 01:29:50;;;;;;;2.50;1.63;;;12.90;99.90;;;;;;5065429;28;20447;-71
2021/06/23 01:32:16;;;;;;;5.30;1.95;;;12.90;99.90;;;;;;5064905;28;20111;-70
2021/06/23 01:34:42;;;;;;;2.40;1.65;;;12.90;99.90;;;;;;5065239;28;20037;-70
2021/06/23 01:37:08;;;;;;;7.40;1.60;;;12.90;99.90;;;;;;5065031;28;20048;-69
2021/06/23 01:39:34;;;;;;;6.53;1.85;;;13.00;99.90;;;;;;5064804;28;20056;-71
2021/06/23 01:42:00;;;;;;;3.92;1.65;;;13.00;99.90;;;;;;5063996;28;20024;-72
2021/06/23 01:44:28;;;;;;;3.55;1.92;;;13.00;99.90;;;;;;5065383;28;20457;-72
2021/06/23 01:46:57;;;;;;;3.13;1.20;;;13.00;99.90;;;;;;5064848;28;20436;-72
2021/06/23 01:49:25;;;;;;;2.08;1.42;;;13.00;99.90;;;;;;5065180;28;20079;-73
2021/06/23 01:51:51;;;;;;;10.68;2.38;;;13.00;99.90;;;;;;5062183;28;20113;-73
2021/06/23 01:54:17;;;;;;;4.00;1.80;;;13.00;99.90;;;;;;5064991;28;20032;-72
2021/06/23 01:56:43;;;;;;;6.18;1.33;;;12.90;99.90;;;;;;5065178;28;20025;-70
2021/06/23 01:59:08;;;;;;;4.13;1.77;;;12.90;99.90;;;;;;5064860;28;20039;-72
2021/06/23 02:01:51;;;;;;;5.38;1.40;;;12.90;99.90;;;;;;5065427;28;20076;-70
2021/06/23 02:04:52;;;;;;;3.97;2.00;;;12.90;99.90;;;;;;5064995;28;20109;-71
2021/06/23 02:07:53;;;;;;;2.88;1.17;;;12.90;99.90;;;;;;5064454;28;20029;-71
2021/06/23 02:10:30;;;;;;;3.33;1.23;;;12.90;99.90;;;;;;5064811;28;20039;-70
2021/06/23 02:13:18;;;;;;;1.77;1.23;;;12.90;99.90;;;;;;5063368;28;20029;-71
2021/06/23 02:15:46;;;;;;;4.50;1.67;;;12.90;99.90;;;;;;5064571;28;20037;-70
2021/06/23 02:18:12;;;;;;;4.28;1.48;;;12.90;99.90;;;;;;5064575;28;20027;-70
2021/06/23 02:20:38;;;;;;;6.97;1.75;;;12.90;99.90;;;;;;5064224;28;20044;-71
2021/06/23 02:23:07;;;;;;;5.32;1.52;;;12.90;99.90;;;;;;5064442;28;20021;-70
2021/06/23 02:25:33;;;;;;;4.00;1.60;;;12.90;99.90;;;;;;5064559;28;20029;-71
2021/06/23 02:27:59;;;;;;;8.23;1.80;;;12.90;99.90;;;;;;5064392;28;20033;-71
2021/06/23 02:30:25;;;;;;;2.65;1.48;;;12.90;99.90;;;;;;5064543;28;20099;-72
2021/06/23 02:32:54;;;;;;;6.50;1.98;;;12.90;99.90;;;;;;5064597;28;20052;-72
2021/06/23 02:35:24;;;;;;;3.55;1.60;;;12.90;99.90;;;;;;5062664;28;20116;-71
2021/06/23 02:37:50;;;;;;;3.80;1.45;;;12.90;99.90;;;;;;5064314;28;20025;-71
2021/06/23 02:40:17;;;;;;;10.57;2.15;;;12.90;99.90;;;;;;5064467;28;20033;-70
2021/06/23 02:42:43;;;;;;;6.13;2.03;;;12.90;99.90;;;;;;5064092;28;20040;-72
2021/06/23 02:45:10;;;;;;;2.30;1.70;;;12.90;99.90;;;;;;5064579;28;20033;-72
2021/06/23 02:47:35;;;;;;;1.98;1.30;;;12.90;99.90;;;;;;5063162;28;20029;-71
2021/06/23 02:50:02;;;;;;;5.40;1.92;;;12.90;99.90;;;;;;5063997;28;20060;-71
2021/06/23 02:52:29;;;;;;;8.02;2.40;;;12.90;99.90;;;;;;5064478;28;20037;-72
2021/06/23 02:55:02;;;;;;;4.63;1.85;;;12.90;99.90;;;;;;5064120;28;20051;-72
2021/06/23 02:57:28;;;;;;;3.47;1.43;;;12.80;99.90;;;;;;5062854;28;20036;-71
2021/06/23 02:59:54;;;;;;;10.80;2.42;;;12.80;99.90;;;;;;5064456;28;20060;-71
2021/06/23 03:02:20;;;;;;;3.15;1.58;;;12.80;99.90;;;;;;5064031;28;20036;-71
2021/06/23 03:04:47;;;;;;;4.60;1.50;;;12.80;99.90;;;;;;5067350;28;20029;-71
2021/06/23 03:07:14;;;;;;;5.93;1.65;;;12.80;99.90;;;;;;5068107;28;20480;-71
2021/06/23 03:09:42;;;;;;;10.05;2.45;;;12.90;99.90;;;;;;5067659;28;20032;-71
2021/06/23 03:12:09;;;;;;;4.68;1.88;;;12.90;99.90;;;;;;5066624;28;20025;-72
2021/06/23 03:14:34;;;;;;;5.38;2.03;;;12.90;99.90;;;;;;5068173;28;20489;-71
2021/06/23 03:17:00;;;;;;;3.88;2.15;;;12.90;99.90;;;;;;5066476;28;20060;-73
2021/06/23 03:19:26;;;;;;;11.20;1.90;;;12.90;99.90;;;;;;5066913;28;20025;-72
2021/06/23 03:21:52;;;;;;;13.00;2.95;;;13.00;99.90;;;;;;5068053;28;20036;-71
2021/06/23 03:24:17;;;;;;;10.55;2.33;;;13.00;99.90;;;;;;5067161;28;20029;-70
2021/06/23 03:26:43;;;;;;;8.32;2.13;;;12.90;99.90;;;;;;5067704;28;20036;-72
2021/06/23 03:29:31;;;;;;;3.88;1.98;;;13.00;99.90;;;;;;5066492;28;20029;-73
2021/06/23 03:31:58;;;;;;;4.10;2.20;;;13.00;99.90;;;;;;5067516;28;20033;-75
2021/06/23 03:34:24;;;;;;;5.53;2.78;;;13.00;99.90;;;;;;5066350;28;20037;-73
2021/06/23 03:36:51;;;;;;;7.20;1.70;;;13.00;99.90;;;;;;5067349;28;20087;-72
2021/06/23 03:39:17;;;;;;;6.85;2.20;;;13.00;99.90;;;;;;5067442;28;20033;-72
2021/06/23 03:41:42;;;;;;;6.22;1.50;;;13.00;99.90;;;;;;5067463;28;20027;-73
2021/06/23 03:44:08;;;;;;;3.05;1.88;;;13.00;99.90;;;;;;5067075;28;20091;-71
2021/06/23 03:46:33;;;;;;;2.58;1.45;;;13.00;99.90;;;;;;5067220;28;20033;-74
2021/06/23 03:48:59;;;;;;;3.75;1.75;;;13.00;99.90;;;;;;5067572;28;20025;-72
2021/06/23 03:51:26;;;;;;;6.22;1.85;;;13.10;99.90;;;;;;5066391;28;20152;-72
2021/06/23 03:53:52;;;;;;;4.82;2.10;;;13.10;99.90;;;;;;5067359;28;20021;-71
2021/06/23 03:56:21;;;;;;;11.90;2.83;;;13.10;99.90;;;;;;5067043;28;20039;-72
2021/06/23 03:58:47;;;;;;;8.48;2.33;;;13.10;99.90;;;;;;5065381;28;20448;-71
2021/06/23 04:01:13;;;;;;;3.20;1.85;;;13.10;99.90;;;;;;5067144;28;20029;-72
2021/06/23 04:03:38;;;;;;;4.43;2.22;;;13.10;99.90;;;;;;5066968;28;20049;-72
2021/06/23 04:06:04;;;;;;;2.63;1.70;;;13.10;99.90;;;;;;5067009;28;20455;-73
2021/06/23 04:08:30;;;;;;;8.55;1.40;;;13.20;99.90;;;;;;5067113;28;20033;-71
2021/06/23 04:10:55;;;;;;;4.97;2.40;;;13.20;99.90;;;;;;5067630;28;20033;-75
2021/06/23 04:13:21;;;;;;;2.20;1.75;;;13.20;99.90;;;;;;5065806;28;20512;-71
2021/06/23 04:15:47;;;;;;;6.82;1.60;;;13.20;99.90;;;;;;5065780;28;20041;-71
2021/06/23 04:18:13;;;;;;;3.35;2.17;;;13.20;99.90;;;;;;5066639;28;20049;-72
2021/06/23 04:20:39;;;;;;;7.28;2.25;;;13.20;99.90;;;;;;5066784;28;20040;-70
2021/06/23 04:23:05;;;;;;;10.55;2.63;;;13.20;99.90;;;;;;5066781;28;20020;-71
2021/06/23 04:25:30;;;;;;;9.77;1.95;;;13.30;99.90;;;;;;5066332;28;20026;-72
2021/06/23 04:27:56;;;;;;;3.80;2.20;;;13.30;99.90;;;;;;5066886;28;20029;-75
2021/06/23 04:30:22;;;;;;;3.42;2.05;;;13.30;99.90;;;;;;5066829;28;20060;-71
2021/06/23 04:32:48;;;;;;;6.57;2.00;;;13.30;99.90;;;;;;5066384;28;20445;-71
2021/06/23 04:35:14;;;;;;;2.95;1.45;;;13.40;99.90;;;;;;5066114;28;20485;-73
2021/06/23 04:37:42;;;;;;;6.47;2.35;;;13.40;99.90;;;;;;5066428;28;20072;-73
2021/06/23 04:40:15;;;;;;;3.50;1.50;;;13.50;99.90;;;;;;5065855;28;20036;-73
2021/06/23 04:42:41;;;;;;;13.95;2.55;;;13.50;99.90;;;;;;5066474;28;20028;-72
2021/06/23 04:45:10;;;;;;;4.22;2.13;;;13.50;99.90;;;;;;5066236;28;20029;-72
2021/06/23 04:47:36;;;;;;;4.25;1.92;;;13.60;99.90;;;;;;5066044;28;20025;-71
2021/06/23 04:50:04;;;;;;;7.00;2.70;;;13.60;99.90;;;;;;5064905;28;20351;-73
2021/06/23 04:52:30;;;;;;;4.00;2.30;;;13.60;99.90;;;;;;5065837;28;20060;-73
2021/06/23 04:54:55;;;;;;;11.48;2.40;;;13.60;99.90;;;;;;5065777;28;20044;-70
2021/06/23 04:57:21;;;;;;;8.48;2.20;;;13.70;99.90;;;;;;5066312;28;20057;-71
2021/06/23 04:59:47;;;;;;;5.80;2.28;;;13.70;99.90;;;;;;5065641;28;20790;-72
2021/06/23 05:02:13;;;;;;;5.97;2.53;;;13.70;99.90;;;;;;5065663;28;20054;-71
2021/06/23 05:04:39;;;;;;;6.20;2.13;;;13.80;99.90;;;;;;5065717;28;20032;-70
2021/06/23 05:07:07;;;;;;;11.45;1.95;;;13.80;99.90;;;;;;5062209;28;20389;-74
2021/06/23 05:09:35;;;;;;;3.67;2.20;;;13.80;99.90;;;;;;5052865;28;20351;-72
2021/06/23 05:12:01;;;;;;;5.63;2.28;;;13.90;99.90;;;;;;5054245;28;20025;-72
2021/06/23 05:14:27;;;;;;;7.13;2.45;;;13.90;99.90;;;;;;5060469;28;20430;-75
2021/06/23 05:16:53;;;;;;;9.15;2.05;;;13.90;99.90;;;;;;5042986;28;20033;-73
2021/06/23 05:19:19;;;;;;;4.93;1.98;;;14.00;99.90;;;;;;5042793;28;20037;-72
2021/06/23 05:21:45;;;;;;;11.25;2.00;;;14.10;99.90;;;;;;5060035;28;20391;-72
2021/06/23 05:24:11;;;;;;;5.90;1.90;;;14.10;99.90;;;;;;5044868;28;20025;-73
2021/06/23 05:26:37;;;;;;;8.63;2.00;;;14.10;99.90;;;;;;5045253;28;20030;-72
2021/06/23 05:29:04;;;;;;;1.80;1.48;;;14.20;99.90;;;;;;5045049;28;20025;-74
2021/06/23 05:31:31;;;;;;;4.88;2.33;;;14.20;99.90;;;;;;5045193;28;20112;-75
2021/06/23 05:33:57;;;;;;;2.65;1.40;;;14.30;99.90;;;;;;5045455;28;20494;-73
2021/06/23 05:36:22;;;;;;;9.55;1.70;;;14.30;99.90;;;;;;5043570;28;20041;-72
2021/06/23 05:38:48;;;;;;;12.30;2.38;;;14.30;99.90;;;;;;5045115;28;20029;-75
2021/06/23 05:41:14;;;;;;;2.70;1.58;;;14.30;99.90;;;;;;5045090;28;20021;-75
2021/06/23 05:43:40;;;;;;;2.17;1.67;;;14.40;99.90;;;;;;5044661;28;20497;-71
2021/06/23 05:46:05;;;;;;;4.05;1.75;;;14.40;99.90;;;;;;5044947;28;20030;-72
2021/06/23 05:48:31;;;;;;;17.88;2.28;;;14.50;99.90;;;;;;5050173;28;20078;-71
2021/06/23 05:50:57;;;;;;;12.20;2.05;;;14.50;99.90;;;;;;5052719;28;20124;-73
2021/06/23 05:53:23;;;;;;;2.67;1.60;;;14.60;99.90;;;;;;5055002;28;20032;-76
2021/06/23 05:55:49;;;;;;;3.92;1.67;;;14.60;99.90;;;;;;5050350;28;20037;-70
2021/06/23 05:58:15;;;;;;;8.38;2.25;;;14.60;99.90;;;;;;5054292;28;20088;-72
2021/06/23 06:00:40;;;;;;;4.55;2.10;;;14.70;99.90;;;;;;5052799;28;20036;-72
2021/06/23 06:03:06;;;;;;;4.45;1.73;;;14.50;99.90;;;;;;5050678;28;20041;-72
2021/06/23 06:05:33;;;;;;;9.25;2.28;;;14.60;99.90;;;;;;5023581;28;20032;-72
2021/06/23 06:07:59;;;;;;;5.03;2.13;;;14.60;99.90;;;;;;5040299;28;20030;-69
2021/06/23 06:10:24;;;;;;;9.23;2.13;;;14.70;99.90;;;;;;5025085;28;20036;-70
2021/06/23 06:12:50;;;;;;;9.55;1.92;;;14.60;99.90;;;;;;5039687;28;20541;-70
2021/06/23 06:15:16;;;;;;;2.80;1.30;;;14.60;99.90;;;;;;5025130;28;20050;-71
2021/06/23 06:17:41;;;;;;;4.00;2.10;;;14.70;99.90;;;;;;5024737;28;20057;-70
2021/06/23 06:20:08;;;;;;;15.32;2.33;;;14.70;99.90;;;;;;5040062;28;20102;-72
2021/06/23 06:22:34;;;;;;;11.07;1.88;;;14.70;99.90;;;;;;5033280;28;20055;-71
2021/06/23 06:25:02;;;;;;;3.00;1.73;;;14.70;99.90;;;;;;5058604;28;20044;-73
2021/06/23 06:27:27;;;;;;;11.60;2.03;;;14.70;99.90;;;;;;5058566;28;20110;-71
2021/06/23 06:29:53;;;;;;;16.13;3.15;;;14.80;99.90;;;;;;5040698;28;20131;-72
2021/06/23 06:32:19;;;;;;;3.35;1.80;;;14.80;99.90;;;;;;5023134;28;20030;-71
2021/06/23 06:34:44;;;;;;;3.05;1.75;;;14.80;99.90;;;;;;5039883;28;20034;-71
2021/06/23 06:37:10;;;;;;;7.38;2.55;;;14.90;99.90;;;;;;5023163;28;20049;-70
2021/06/23 06:39:36;;;;;;;8.80;2.35;;;14.90;99.90;;;;;;5027231;28;20025;-72
2021/06/23 06:42:04;;;;;;;6.53;2.30;;;15.00;99.90;;;;;;5044223;28;20030;-72
2021/06/23 06:44:34;;;;;;;5.15;2.40;;;15.00;99.90;;;;;;5027569;28;20065;-76
2021/06/23 06:47:01;;;;;;;4.53;1.95;;;15.00;99.90;;;;;;5043037;28;20058;-75
2021/06/23 06:49:29;;;;;;;8.27;2.90;;;15.00;99.90;;;;;;5026885;28;20659;-76
2021/06/23 06:51:58;;;;;;;15.50;2.28;;;15.00;99.90;;;;;;5024961;28;20049;-74
2021/06/23 06:54:24;;;;;;;12.05;1.98;;;15.00;99.90;;;;;;5025325;28;20075;-73
2021/06/23 06:56:50;;;;;;;7.07;2.38;;;15.00;99.90;;;;;;5026832;28;20065;-73
2021/06/23 06:59:18;;;;;;;9.10;2.08;;;15.10;99.90;;;;;;5024857;28;20119;-72
2021/06/23 07:01:47;;;;;;;9.80;1.90;;;15.30;99.90;;;;;;5042715;28;20033;-76
2021/06/23 07:04:15;;;;;;;5.70;1.70;;;15.40;99.90;;;;;;5056034;28;20037;-73
2021/06/23 07:06:42;;;;;;;6.05;1.55;;;15.50;99.90;;;;;;5058862;28;20117;-76
2021/06/23 07:09:07;;;;;;;4.32;1.75;;;15.50;99.90;;;;;;5065979;28;20081;-74
2021/06/23 07:11:33;;;;;;;8.02;2.15;;;15.50;99.90;;;;;;5065423;28;20052;-74
2021/06/23 07:13:59;;;;;;;8.80;2.08;;;15.50;99.90;;;;;;5066352;28;20437;-72
2021/06/23 07:16:24;;;;;;;9.13;1.98;;;15.50;99.90;;;;;;5066009;28;20081;-75
2021/06/23 07:18:50;;;;;;;8.38;2.22;;;15.50;99.90;;;;;;5065661;28;20033;-72
2021/06/23 07:21:18;;;;;;;7.15;2.45;;;15.40;99.90;;;;;;5066006;28;20025;-73
2021/06/23 07:23:45;;;;;;;4.22;1.60;;;15.50;99.90;;;;;;5065046;28;20048;-75
2021/06/23 07:26:11;;;;;;;4.45;2.20;;;15.50;99.90;;;;;;5065657;28;20025;-71
2021/06/23 07:28:46;;;;;;;1.42;1.25;;;15.70;99.90;;;;;;5066329;28;20032;-72
2021/06/23 07:31:15;;;;;;;4.03;2.15;;;15.80;99.90;;;;;;5065979;28;20058;-73
2021/06/23 07:33:50;;;;;;;11.60;2.08;;;16.00;99.90;;;;;;5065539;28;20088;-74
2021/06/23 07:39:03;;;;;;;3.15;1.70;;;16.20;99.90;;;;;;5058150;28;20049;-74
2021/06/23 07:41:28;;;;;;;4.82;1.77;;;16.40;99.90;;;;;;5055369;28;20029;-73
2021/06/23 07:43:54;;;;;;;3.22;1.85;;;16.50;99.90;;;;;;5054419;28;20039;-72
2021/06/23 07:46:25;;;;;;;3.80;1.70;;;16.60;99.90;;;;;;5060682;28;20044;-74
2021/06/23 07:48:52;;;;;;;5.18;1.92;;;16.60;99.90;;;;;;5045818;28;20117;-73
2021/06/23 07:51:26;;;;;;;2.80;1.08;;;16.50;99.90;;;;;;5045417;28;20397;-74
2021/06/23 08:10:26;;;;;;;8.98;1.65;;;16.60;99.90;;;;;;5023132;28;20052;-72
2021/06/23 08:12:55;;;;;;;2.78;1.42;;;16.50;99.90;;;;;;5022855;28;20021;-73
2021/06/23 08:15:22;;;;;;;2.67;1.45;;;16.60;99.90;;;;;;5034094;28;20052;-72
2021/06/23 08:17:48;;;;;;;12.25;1.98;;;16.60;99.90;;;;;;5044151;28;20075;-73
2021/06/23 08:20:14;;;;;;;6.60;1.08;;;16.70;99.90;;;;;;5059921;28;20026;-72
2021/06/23 08:22:39;;;;;;;3.70;1.55;;;16.70;99.90;;;;;;5044163;28;20572;-72
2021/06/23 08:25:06;;;;;;;8.07;1.35;;;16.80;99.90;;;;;;5045162;28;20025;-73
2021/06/23 08:27:35;;;;;;;2.13;1.45;;;16.80;99.90;;;;;;5044856;28;20493;-76
2021/06/23 08:30:01;;;;;;;3.10;1.67;;;16.90;99.90;;;;;;5044191;28;20034;-73
2021/06/23 08:32:27;;;;;;;11.90;2.30;;;16.90;99.90;;;;;;5045053;28;20033;-73
2021/06/23 08:34:52;;;;;;;1.60;0.95;;;17.10;99.90;;;;;;5045736;28;20533;-74
2021/06/23 08:37:18;;;;;;;1.25;1.13;;;17.20;99.90;;;;;;5043043;28;20101;-71
2021/06/23 08:39:47;;;;;;;6.43;2.28;;;17.40;99.90;;;;;;5044734;28;20056;-72
2021/06/23 08:42:13;;;;;;;5.03;1.95;;;17.40;99.90;;;;;;5043406;28;20033;-72
2021/06/23 08:44:38;;;;;;;3.75;1.33;;;17.40;99.90;;;;;;5043658;28;20037;-71
2021/06/23 08:47:04;;;;;;;3.15;1.13;;;17.50;99.90;;;;;;5044625;28;20108;-73
2021/06/23 08:49:30;;;;;;;2.28;0.80;;;17.40;99.90;;;;;;5044396;28;20448;-73
2021/06/23 08:51:57;;;;;;;3.58;1.35;;;17.40;99.90;;;;;;5059496;28;20394;-72
2021/06/23 08:54:26;;;;;;;10.40;1.63;;;17.30;99.90;;;;;;5044590;28;20099;-73
2021/06/23 08:56:51;;;;;;;2.38;1.40;;;17.40;99.90;;;;;;5043925;28;20038;-75
2021/06/23 08:59:17;;;;;;;5.45;1.38;;;17.20;99.90;;;;;;5042794;28;20021;-72
2021/06/23 09:01:43;;;;;;;2.15;1.17;;;17.20;99.90;;;;;;5047456;28;20029;-70
2021/06/23 09:04:15;;;;;;;3.53;1.33;;;17.10;99.90;;;;;;5056982;28;20029;-71
2021/06/23 09:06:43;;;;;;;16.10;1.92;;;17.10;99.90;;;;;;5041117;28;20109;-72
2021/06/23 09:09:15;;;;;;;5.28;1.42;;;17.00;99.90;;;;;;5023974;28;20036;-75
2021/06/23 09:11:41;;;;;;;9.45;1.48;;;17.00;99.90;;;;;;5024356;28;20103;-72
2021/06/23 09:14:11;;;;;;;2.45;1.13;;;17.00;99.90;;;;;;5039123;28;20025;-76
2021/06/23 09:17:05;;;;;;;4.28;1.85;;;16.90;99.90;;;;;;5039007;28;20034;-74
2021/06/23 09:19:44;;;;;;;7.30;2.58;;;16.90;99.90;;;;;;5036097;28;20071;-71
2021/06/23 09:22:36;;;;;;;2.92;1.38;;;16.90;99.90;;;;;;5049431;28;20060;-74
2021/06/23 09:25:11;;;;;;;2.40;1.52;;;16.90;99.90;;;;;;5043131;28;20029;-72
2021/06/23 09:27:47;;;;;;;4.00;1.77;;;16.90;99.90;;;;;;5048851;28;20025;-71
2021/06/23 09:30:34;;;;;;;3.88;1.88;;;16.90;99.90;;;;;;5062415;28;20428;-70
2021/06/23 09:33:11;;;;;;;2.88;1.17;;;16.90;99.90;;;;;;5047449;28;20093;-70
2021/06/23 09:35:39;;;;;;;3.03;1.42;;;17.00;99.90;;;;;;5058117;28;20105;-72
2021/06/23 09:38:05;;;;;;;7.38;1.63;;;17.10;99.90;;;;;;5043483;28;20031;-71
2021/06/23 09:40:31;;;;;;;3.45;2.03;;;17.30;99.90;;;;;;5043395;28;20081;-73
2021/06/23 09:43:01;;;;;;;13.35;1.88;;;17.30;99.90;;;;;;5044011;28;20413;-75
2021/06/23 09:45:30;;;;;;;7.88;1.55;;;17.40;99.90;;;;;;5043938;28;20358;-73
2021/06/23 09:48:03;;;;;;;3.75;1.33;;;17.50;99.90;;;;;;5043510;28;20085;-69
2021/06/23 09:50:31;;;;;;;3.53;1.42;;;17.50;99.90;;;;;;5042909;28;20053;-75
2021/06/23 09:53:03;;;;;;;4.55;1.45;;;17.70;99.90;;;;;;5043601;28;20052;-70
2021/06/23 09:55:46;;;;;;;7.25;2.45;;;17.80;99.90;;;;;;5052804;28;20044;-72
2021/06/23 09:58:21;;;;;;;12.40;1.75;;;17.90;99.90;;;;;;5043624;28;20025;-70
2021/06/23 10:01:01;;;;;;;4.05;1.60;;;18.10;99.90;;;;;;5062090;28;20032;-72
2021/06/23 10:03:34;;;;;;;2.22;0.93;;;18.20;99.90;;;;;;5048295;28;20040;-72
2021/06/23 10:06:20;;;;;;;4.65;1.90;;;18.20;99.90;;;;;;5060425;28;20060;-73
2021/06/23 10:08:46;;;;;;;6.35;2.15;;;18.30;99.90;;;;;;5062444;28;20032;-71
2021/06/23 10:11:18;;;;;;;3.58;1.52;;;18.40;99.90;;;;;;5063300;28;20025;-73
2021/06/23 10:13:44;;;;;;;8.07;1.58;;;18.60;99.90;;;;;;5061024;28;20092;-74
2021/06/23 10:16:10;;;;;;;3.10;1.23;;;18.80;99.90;;;;;;5062524;28;20037;-70
2021/06/23 10:18:36;;;;;;;1.98;1.42;;;18.90;99.90;;;;;;5062801;28;20093;-71
2021/06/23 10:21:07;;;;;;;4.22;1.65;;;19.00;99.90;;;;;;5056404;28;20029;-70
2021/06/23 10:23:33;;;;;;;7.03;1.77;;;19.20;99.90;;;;;;5042909;28;20117;-69
2021/06/23 10:26:01;;;;;;;3.55;1.48;;;19.20;99.90;;;;;;5042881;28;20038;-71
2021/06/23 10:28:28;;;;;;;3.38;1.05;;;19.20;99.90;;;;;;5043339;28;20026;-69
2021/06/23 10:30:54;;;;;;;5.00;1.50;;;19.20;99.90;;;;;;5042936;28;20116;-71
2021/06/23 10:33:21;;;;;;;3.38;1.50;;;19.30;99.90;;;;;;5055885;28;20029;-71
2021/06/23 10:35:48;;;;;;;5.10;1.95;;;19.60;99.90;;;;;;5051403;28;20041;-72
2021/06/23 10:38:18;;;;;;;17.42;1.73;;;19.70;99.90;;;;;;5042660;28;20027;-72
2021/06/23 10:40:44;;;;;;;2.75;1.05;;;19.80;99.90;;;;;;5058555;28;20032;-72
2021/06/23 10:43:11;;;;;;;4.38;1.70;;;20.10;99.90;;;;;;5041879;28;20034;-72
2021/06/23 10:45:44;;;;;;;4.22;2.10;;;20.30;99.90;;;;;;5043406;28;20474;-72
2021/06/23 10:48:11;;;;;;;14.10;1.83;;;20.40;99.90;;;;;;5058417;28;20059;-71
2021/06/23 10:50:38;;;;;;;2.30;1.08;;;20.80;99.90;;;;;;5042686;28;20041;-72
2021/06/23 10:53:33;;;;;;;5.15;1.33;;;20.90;99.90;;;;;;5042516;28;20056;-70
2021/06/23 10:56:03;;;;;;;3.75;1.70;;;20.90;99.90;;;;;;5023247;28;20054;-72
2021/06/23 10:58:34;;;;;;;6.70;1.48;;;20.90;99.90;;;;;;5038332;28;20033;-71
2021/06/23 11:01:14;;;;;;;2.50;1.02;;;20.70;99.90;;;;;;5022999;28;20194;-72
2021/06/23 11:04:01;;;;;;;2.10;1.08;;;20.80;99.90;;;;;;5022893;28;20033;-72
2021/06/23 11:06:45;;;;;;;2.53;1.23;;;20.90;99.90;;;;;;5022577;28;20040;-72
2021/06/23 11:09:24;;;;;;;3.60;1.48;;;21.10;99.90;;;;;;5023127;28;20033;-71
2021/06/23 11:11:50;;;;;;;2.80;1.10;;;21.20;99.90;;;;;;5018384;28;20034;-70
2021/06/23 11:14:17;;;;;;;5.35;1.30;;;21.50;99.90;;;;;;5021468;28;20120;-71
2021/06/23 11:16:50;;;;;;;4.88;1.33;;;21.90;99.90;;;;;;5021910;28;20022;-74
2021/06/23 11:19:17;;;;;;;3.40;1.15;;;22.10;99.90;;;;;;5021697;28;20378;-71
2021/06/23 11:21:46;;;;;;;8.75;1.48;;;22.30;99.90;;;;;;5032603;28;20052;-73
2021/06/23 11:24:16;;;;;;;2.42;1.45;;;22.60;99.90;;;;;;5022462;28;20026;-70
2021/06/23 11:26:47;;;;;;;3.10;1.30;;;23.00;99.90;;;;;;5025431;28;20030;-73
2021/06/23 11:29:13;;;;;;;1.85;0.82;;;23.20;99.90;;;;;;5025330;28;20026;-70
2021/06/23 11:31:54;;;;;;;0.95;0.77;;;23.10;99.90;;;;;;5025482;28;20026;-74
2021/06/23 11:34:40;;;;;;;5.55;1.17;;;22.90;99.90;;;;;;5024814;28;20038;-71
2021/06/23 11:37:16;;;;;;;2.47;1.35;;;22.90;99.90;;;;;;5025370;28;20026;-70
2021/06/23 11:39:44;;;;;;;2.53;1.20;;;23.00;99.90;;;;;;5040082;28;20109;-72
2021/06/23 11:42:10;;;;;;;5.43;1.27;;;22.90;99.90;;;;;;5023392;28;20080;-72
2021/06/23 11:44:38;;;;;;;4.18;1.30;;;22.60;99.90;;;;;;5024934;28;20026;-72
2021/06/23 11:47:06;;;;;;;3.58;1.20;;;22.40;99.90;;;;;;5025623;28;20033;-73
2021/06/23 11:49:35;;;;;;;1.15;0.95;;;22.20;99.90;;;;;;5023130;28;20030;-71
2021/06/23 11:52:07;;;;;;;3.40;1.00;;;22.10;99.90;;;;;;5043811;28;20079;-73
2021/06/23 11:54:33;;;;;;;6.05;1.55;;;22.10;99.90;;;;;;5045625;28;20057;-72
2021/06/23 11:56:58;;;;;;;9.07;1.60;;;22.20;99.90;;;;;;5044618;28;20026;-74
2021/06/23 11:59:24;;;;;;;1.83;0.77;;;22.10;99.90;;;;;;5044441;28;20072;-71
2021/06/23 12:01:49;;;;;;;2.53;1.08;;;22.30;99.90;;;;;;5044318;28;20025;-70
2021/06/23 12:04:15;;;;;;;5.00;1.42;;;22.50;99.90;;;;;;5045004;28;20073;-72
2021/06/23 12:06:42;;;;;;;4.38;1.55;;;22.30;99.90;;;;;;5044210;28;20026;-70
2021/06/23 12:09:11;;;;;;;1.88;0.88;;;22.10;99.90;;;;;;5045250;28;20536;-71
2021/06/23 12:11:38;;;;;;;3.53;1.25;;;22.00;99.90;;;;;;5045736;28;20030;-73
2021/06/23 12:14:04;;;;;;;3.75;0.85;;;21.80;99.90;;;;;;5046009;28;20089;-70
2021/06/23 12:16:34;;;;;;;2.95;1.23;;;21.70;99.90;;;;;;5044011;28;20394;-73
2021/06/23 12:19:03;;;;;;;2.65;1.13;;;21.40;99.90;;;;;;5045040;28;20053;-76
2021/06/23 12:21:33;;;;;;;1.52;0.80;;;21.20;99.90;;;;;;5045791;28;20034;-72
2021/06/23 12:24:02;;;;;;;4.18;1.48;;;21.10;99.90;;;;;;5044094;28;20033;-77
2021/06/23 12:26:29;;;;;;;4.53;0.98;;;21.00;99.90;;;;;;5045840;28;20533;-74
2021/06/23 12:28:55;;;;;;;1.35;0.82;;;20.90;99.90;;;;;;5045623;28;20064;-70
2021/06/23 12:31:26;;;;;;;5.30;1.70;;;20.80;99.90;;;;;;5045143;28;20476;-73
2021/06/23 12:33:52;;;;;;;3.97;1.50;;;20.60;99.90;;;;;;5045396;28;20065;-71
2021/06/23 12:36:18;;;;;;;1.92;1.05;;;20.60;99.90;;;;;;5044663;28;20053;-72
2021/06/23 12:38:43;;;;;;;1.00;0.90;;;20.50;99.90;;;;;;5045029;28;20064;-71
2021/06/23 12:41:09;;;;;;;5.53;1.80;;;20.50;99.90;;;;;;5045497;28;20025;-73
2021/06/23 12:43:34;;;;;;;2.00;0.93;;;20.50;99.90;;;;;;5027748;28;20021;-74
2021/06/23 12:46:01;;;;;;;3.03;1.58;;;20.50;99.90;;;;;;5026101;28;20065;-74
2021/06/23 12:48:26;;;;;;;1.92;0.93;;;20.60;99.90;;;;;;5025823;28;20056;-71
2021/06/23 12:50:52;;;;;;;1.08;0.70;;;20.60;99.90;;;;;;5022712;28;20058;-73
2021/06/23 12:53:18;;;;;;;2.17;1.58;;;20.60;99.90;;;;;;5025370;28;20056;-71
2021/06/23 12:55:43;;;;;;;2.10;1.23;;;20.70;99.90;;;;;;5025521;28;20042;-72
2021/06/23 12:58:09;;;;;;;2.25;1.10;;;20.80;99.90;;;;;;5025333;28;20030;-73
2021/06/23 13:00:36;;;;;;;5.30;1.73;;;20.80;99.90;;;;;;5024720;28;20085;-72
2021/06/23 13:03:01;;;;;;;5.00;1.08;;;20.80;99.90;;;;;;5025681;28;20061;-72
2021/06/23 13:05:27;;;;;;;3.35;0.98;;;20.80;99.90;;;;;;5024160;28;20038;-73
2021/06/23 13:07:52;;;;;;;7.68;1.38;;;20.80;99.90;;;;;;5024887;28;20041;-75
2021/06/23 13:10:19;;;;;;;2.45;1.50;;;20.80;99.90;;;;;;5024201;28;20025;-73